createdAt,value
2022-11-26T00:00:53.731Z,99121.84
2022-11-26T00:03:20.721Z,99130.34
2022-11-26T00:05:50.679Z,99139.19
2022-11-26T00:08:24.770Z,99139.66
2022-11-26T00:10:53.419Z,99148.03
2022-11-26T00:13:23.453Z,99162.41
2022-11-26T00:15:50.540Z,99158.09
2022-11-26T00:18:18.232Z,99160.19
2022-11-26T00:20:46.531Z,99152.47
2022-11-26T00:23:21.195Z,99151.03
2022-11-26T00:26:11.930Z,99140.97
2022-11-26T00:28:40.872Z,99145.88
2022-11-26T00:31:14.302Z,99147.91
2022-11-26T00:33:40.939Z,99148.16
2022-11-26T00:36:29.991Z,99148.16
2022-11-26T00:39:01.681Z,99146.72
2022-11-26T00:41:33.290Z,99157.16
2022-11-26T00:44:00.141Z,99141.34
2022-11-26T00:46:27.292Z,99148.97
2022-11-26T00:48:53.902Z,99157.59
2022-11-26T00:51:25.910Z,99159.19
2022-11-26T00:53:59.211Z,99159.75
2022-11-26T00:56:26.266Z,99153.38
2022-11-26T00:58:52.756Z,99149.28
2022-11-26T01:01:22.149Z,99150.75
2022-11-26T01:03:48.861Z,99154.94
2022-11-26T01:06:23.958Z,99151.94
2022-11-26T01:08:50.803Z,99147.88
2022-11-26T01:11:20.596Z,99156.50
2022-11-26T01:13:49.343Z,99153.09
2022-11-26T01:16:20.680Z,99162.84
2022-11-26T01:18:49.175Z,99163.00
2022-11-26T01:21:15.835Z,99160.22
2022-11-26T01:23:42.383Z,99154.72
2022-11-26T01:26:24.383Z,99168.03
2022-11-26T01:28:51.518Z,99174.16
2022-11-26T01:31:21.325Z,99166.34
2022-11-26T01:33:48.679Z,99180.09
2022-11-26T01:36:27.442Z,99186.69
2022-11-26T01:38:56.034Z,99182.13
2022-11-26T01:41:43.772Z,99189.72
2022-11-26T01:44:22.627Z,99193.19
2022-11-26T01:46:51.098Z,99194.16
2022-11-26T01:49:29.492Z,99196.19
2022-11-26T01:52:14.131Z,99202.69
2022-11-26T01:54:43.349Z,99200.97
2022-11-26T01:57:23.808Z,99197.88
2022-11-26T01:59:56.902Z,99201.13
2022-11-26T02:02:27.438Z,99212.41
2022-11-26T02:05:07.582Z,99210.34
2022-11-26T02:07:35.598Z,99208.28
2022-11-26T02:10:02.225Z,99204.44
2022-11-26T02:12:29.120Z,99207.91
2022-11-26T02:14:55.809Z,99202.53
2022-11-26T02:17:34.913Z,99201.13
2022-11-26T02:20:23.367Z,99212.63
2022-11-26T02:22:49.872Z,99205.28
2022-11-26T02:25:37.426Z,99208.47
2022-11-26T02:28:22.674Z,99217.84
2022-11-26T02:30:56.876Z,99213.88
2022-11-26T02:33:58.390Z,99202.03
2022-11-26T02:36:35.463Z,99203.59
2022-11-26T02:39:16.892Z,99205.66
2022-11-26T02:41:52.430Z,99220.31
2022-11-26T02:44:25.691Z,99214.28
2022-11-26T02:47:01.596Z,99204.47
2022-11-26T02:49:30.648Z,99211.16
2022-11-26T02:52:01.238Z,99210.44
2022-11-26T02:54:29.494Z,99204.69
2022-11-26T02:56:58.183Z,99196.28
2022-11-26T02:59:24.933Z,99192.72
2022-11-26T03:01:58.077Z,99191.53
2022-11-26T03:04:33.291Z,99188.16
2022-11-26T03:07:02.716Z,99183.84
2022-11-26T03:09:39.470Z,99184.31
2022-11-26T03:12:06.463Z,99182.03
2022-11-26T03:14:33.102Z,99169.91
2022-11-26T03:16:59.582Z,99174.97
2022-11-26T03:19:26.119Z,99178.94
2022-11-26T03:21:52.636Z,99174.84
2022-11-26T03:24:19.127Z,99173.41
2022-11-26T03:26:45.944Z,99166.69
2022-11-26T03:29:12.456Z,99156.44
2022-11-26T03:31:39.028Z,99163.22
2022-11-26T03:34:05.591Z,99158.31
2022-11-26T03:36:32.291Z,99162.00
2022-11-26T03:38:58.790Z,99161.53
2022-11-26T03:41:25.346Z,99169.22
2022-11-26T03:43:51.928Z,99176.88
2022-11-26T03:46:18.497Z,99172.56
2022-11-26T03:48:49.155Z,99170.38
2022-11-26T03:51:18.748Z,99179.84
2022-11-26T03:53:47.068Z,99186.09
2022-11-26T03:56:13.579Z,99183.19
2022-11-26T03:58:40.087Z,99176.81
2022-11-26T04:01:12.138Z,99179.56
2022-11-26T04:03:39.710Z,99173.47
2022-11-26T04:06:06.955Z,99176.94
2022-11-26T04:08:33.558Z,99178.72
2022-11-26T04:11:00.115Z,99185.53
2022-11-26T04:13:26.618Z,99186.00
2022-11-26T04:15:53.214Z,99187.56
2022-11-26T04:18:19.744Z,99190.72
2022-11-26T04:20:51.423Z,99198.94
2022-11-26T04:23:19.906Z,99203.88
2022-11-26T04:25:49.344Z,99200.50
2022-11-26T04:28:20.040Z,99189.63
2022-11-26T04:30:48.929Z,99200.16
2022-11-26T04:33:15.500Z,99190.38
2022-11-26T04:35:42.796Z,99201.78
2022-11-26T04:38:09.500Z,99199.16
2022-11-26T04:40:36.575Z,99197.47
2022-11-26T04:43:03.245Z,99194.22
2022-11-26T04:45:29.857Z,99188.50
2022-11-26T04:47:56.381Z,99198.59
2022-11-26T04:50:23.030Z,99210.56
2022-11-26T04:52:52.420Z,99205.34
2022-11-26T04:55:21.766Z,99201.13
2022-11-26T04:57:51.458Z,99209.63
2022-11-26T05:00:22.690Z,99201.81
2022-11-26T05:02:53.007Z,99198.34
2022-11-26T05:05:23.436Z,99196.31
2022-11-26T05:07:51.118Z,99195.75
2022-11-26T05:10:20.431Z,99188.91
2022-11-26T05:12:47.002Z,99193.72
2022-11-26T05:15:13.488Z,99194.78
2022-11-26T05:17:40.091Z,99200.69
2022-11-26T05:20:07.415Z,99203.78
2022-11-26T05:22:34.037Z,99212.53
2022-11-26T05:25:00.570Z,99211.69
2022-11-26T05:27:27.100Z,99207.16
2022-11-26T05:29:53.595Z,99219.81
2022-11-26T05:32:23.020Z,99224.72
2022-11-26T05:34:54.501Z,99219.22
2022-11-26T05:37:25.210Z,99214.53
2022-11-26T05:39:54.753Z,99212.88
2022-11-26T05:42:24.166Z,99212.63
2022-11-26T05:44:52.524Z,99222.69
2022-11-26T05:47:19.115Z,99213.72
2022-11-26T05:49:45.651Z,99216.25
2022-11-26T05:52:12.199Z,99206.31
2022-11-26T05:54:38.927Z,99210.25
2022-11-26T05:57:05.648Z,99203.91
2022-11-26T05:59:32.129Z,99216.72
2022-11-26T06:01:58.776Z,99213.88
2022-11-26T06:04:25.376Z,99228.22
2022-11-26T06:06:54.302Z,99235.66
2022-11-26T06:09:21.034Z,99233.28
2022-11-26T06:11:50.138Z,99234.72
2022-11-26T06:14:17.331Z,99230.28
2022-11-26T06:16:43.865Z,99231.84
2022-11-26T06:19:11.514Z,99223.19
2022-11-26T06:21:38.110Z,99229.06
2022-11-26T06:24:05.129Z,99230.88
2022-11-26T06:26:31.921Z,99232.81
2022-11-26T06:28:58.449Z,99244.91
2022-11-26T06:31:25.737Z,99241.44
2022-11-26T06:33:56.704Z,99259.41
2022-11-26T06:36:25.647Z,99266.38
2022-11-26T06:38:52.248Z,99265.41
2022-11-26T06:41:19.039Z,99267.22
2022-11-26T06:43:45.558Z,99271.53
2022-11-26T06:46:12.486Z,99273.94
2022-11-26T06:48:39.676Z,99283.16
2022-11-26T06:51:11.676Z,99287.47
2022-11-26T06:53:38.552Z,99278.47
2022-11-26T06:56:08.084Z,99268.06
2022-11-26T06:58:34.747Z,99272.16
2022-11-26T07:01:07.875Z,99276.81
2022-11-26T07:03:34.427Z,99277.19
2022-11-26T07:06:00.929Z,99274.78
2022-11-26T07:08:27.792Z,99286.41
2022-11-26T07:10:54.312Z,99293.63
2022-11-26T07:13:20.976Z,99296.94
2022-11-26T07:15:47.563Z,99293.84
2022-11-26T07:18:14.094Z,99305.69
2022-11-26T07:20:40.593Z,99304.25
2022-11-26T07:23:07.105Z,99306.53
2022-11-26T07:25:33.605Z,99313.88
2022-11-26T07:28:00.106Z,99321.56
2022-11-26T07:30:29.051Z,99317.47
2022-11-26T07:32:55.545Z,99332.34
2022-11-26T07:35:22.047Z,99329.94
2022-11-26T07:37:48.629Z,99329.34
2022-11-26T07:40:15.197Z,99333.53
2022-11-26T07:42:41.744Z,99342.31
2022-11-26T07:45:08.569Z,99335.69
2022-11-26T07:47:35.095Z,99329.09
2022-11-26T07:50:01.734Z,99324.28
2022-11-26T07:52:33.714Z,99327.91
2022-11-26T07:55:00.926Z,99331.00
2022-11-26T07:57:31.696Z,99329.94
2022-11-26T08:00:00.139Z,99335.69
2022-11-26T08:02:26.920Z,99333.31
2022-11-26T08:04:53.738Z,99336.66
2022-11-26T08:07:26.030Z,99331.16
2022-11-26T08:09:56.688Z,99325.03
2022-11-26T08:12:23.375Z,99322.41
2022-11-26T08:14:50.122Z,99326.34
2022-11-26T08:17:16.861Z,99325.84
2022-11-26T08:19:43.634Z,99331.47
2022-11-26T08:22:10.375Z,99321.06
2022-11-26T08:24:37.334Z,99323.56
2022-11-26T08:27:04.380Z,99319.59
2022-11-26T08:29:36.810Z,99317.09
2022-11-26T08:32:04.438Z,99316.31
2022-11-26T08:34:33.793Z,99313.81
2022-11-26T08:37:02.277Z,99312.19
2022-11-26T08:39:29.054Z,99312.66
2022-11-26T08:41:56.448Z,99307.22
2022-11-26T08:44:23.065Z,99309.69
2022-11-26T08:46:50.320Z,99310.84
2022-11-26T08:49:17.223Z,99316.88
2022-11-26T08:51:45.773Z,99314.06
2022-11-26T08:54:14.714Z,99322.94
2022-11-26T08:56:41.277Z,99319.66
2022-11-26T08:59:07.822Z,99331.69
2022-11-26T09:01:34.946Z,99329.97
2022-11-26T09:04:03.221Z,99333.25
2022-11-26T09:06:36.808Z,99333.69
2022-11-26T09:09:14.413Z,99342.00
2022-11-26T09:12:02.262Z,99326.50
2022-11-26T09:14:36.004Z,99341.13
2022-11-26T09:17:03.013Z,99345.31
2022-11-26T09:19:33.837Z,99336.28
2022-11-26T09:22:04.005Z,99327.66
2022-11-26T09:24:34.043Z,99330.72
2022-11-26T09:27:07.780Z,99313.28
2022-11-26T09:29:34.711Z,99316.88
2022-11-26T09:34:52.488Z,99315.59
2022-11-26T09:37:19.382Z,99325.19
2022-11-26T09:39:46.420Z,99329.72
2022-11-26T09:42:21.948Z,99343.56
2022-11-26T09:45:12.762Z,99348.00
2022-11-26T09:47:46.419Z,99355.19
2022-11-26T09:50:16.026Z,99349.91
2022-11-26T09:53:04.191Z,99348.59
2022-11-26T09:55:36.353Z,99350.03
2022-11-26T09:58:15.305Z,99359.25
2022-11-26T10:00:44.836Z,99357.41
2022-11-26T10:03:16.239Z,99364.50
2022-11-26T10:05:49.976Z,99353.84
2022-11-26T10:08:40.650Z,99341.91
2022-11-26T10:11:10.092Z,99337.84
2022-11-26T10:14:03.641Z,99347.03
2022-11-26T10:16:43.760Z,99342.56
2022-11-26T10:19:25.679Z,99334.91
2022-11-26T10:21:59.054Z,99336.09
2022-11-26T10:24:35.043Z,99342.00
2022-11-26T10:27:10.806Z,99334.91
2022-11-26T10:29:42.130Z,99327.91
2022-11-26T10:32:16.333Z,99334.00
2022-11-26T10:34:50.882Z,99322.16
2022-11-26T10:37:20.706Z,99324.13
2022-11-26T10:39:47.985Z,99327.06
2022-11-26T10:42:17.437Z,99320.94
2022-11-26T10:44:45.175Z,99329.53
2022-11-26T10:47:27.220Z,99331.06
2022-11-26T10:50:45.472Z,99342.88
2022-11-26T10:53:06.642Z,99329.19
2022-11-26T10:55:40.931Z,99345.94
2022-11-26T10:58:16.502Z,99331.34
2022-11-26T11:00:44.856Z,99335.59
2022-11-26T11:04:07.368Z,99319.03
2022-11-26T11:06:42.585Z,99302.50
2022-11-26T11:09:41.681Z,99297.66
2022-11-26T11:12:10.746Z,99285.59
2022-11-26T11:14:42.427Z,99275.06
2022-11-26T11:17:31.637Z,99268.19
2022-11-26T11:20:25.739Z,99251.72
2022-11-26T11:23:01.733Z,99244.22
2022-11-26T11:25:33.591Z,99235.72
2022-11-26T11:28:13.200Z,99232.91
2022-11-26T11:30:41.392Z,99230.72
2022-11-26T11:33:24.520Z,99226.72
2022-11-26T11:36:04.475Z,99217.72
2022-11-26T11:39:03.897Z,99222.00
2022-11-26T11:41:43.645Z,99218.28
2022-11-26T11:44:10.335Z,99219.88
2022-11-26T11:47:02.979Z,99210.88
2022-11-26T11:49:48.646Z,99207.78
2022-11-26T11:52:36.682Z,99204.19
2022-11-26T11:55:21.474Z,99201.47
2022-11-26T11:58:14.513Z,99203.09
2022-11-26T12:01:03.287Z,99196.81
2022-11-26T12:03:50.784Z,99200.53
2022-11-26T12:06:46.025Z,99188.69
2022-11-26T12:09:38.673Z,99182.22
2022-11-26T12:12:20.327Z,99179.16
2022-11-26T12:15:07.232Z,99173.13
2022-11-26T12:17:40.410Z,99168.63
2022-11-26T12:20:34.521Z,99158.94
2022-11-26T12:23:14.462Z,99167.84
2022-11-26T12:25:43.413Z,99172.13
2022-11-26T12:28:16.453Z,99180.50
2022-11-26T12:30:55.720Z,99183.59
2022-11-26T12:34:08.788Z,99188.03
2022-11-26T12:36:41.387Z,99192.81
2022-11-26T12:39:19.201Z,99181.47
2022-11-26T12:42:07.772Z,99181.34
2022-11-26T12:44:41.001Z,99186.38
2022-11-26T12:47:26.896Z,99178.53
2022-11-26T12:50:02.502Z,99182.25
2022-11-26T12:53:02.127Z,99158.97
2022-11-26T12:55:46.204Z,99168.94
2022-11-26T12:58:26.568Z,99174.22
2022-11-26T13:00:54.895Z,99171.03
2022-11-26T13:03:32.264Z,99159.53
2022-11-26T13:06:20.021Z,99172.19
2022-11-26T13:09:01.844Z,99160.88
2022-11-26T13:12:01.500Z,99152.44
2022-11-26T13:14:42.130Z,99148.13
2022-11-26T13:17:22.856Z,99137.47
2022-11-26T13:20:05.072Z,99134.28
2022-11-26T13:23:09.055Z,99132.59
2022-11-26T13:25:50.782Z,99142.38
2022-11-26T13:28:55.772Z,99133.47
2022-11-26T13:31:33.415Z,99134.75
2022-11-26T13:34:21.345Z,99126.13
2022-11-26T13:37:06.417Z,99119.22
2022-11-26T13:40:14.786Z,99122.47
2022-11-26T13:43:18.647Z,99113.31
2022-11-26T13:45:57.464Z,99119.16
2022-11-26T13:49:06.073Z,99121.34
2022-11-26T13:51:42.004Z,99116.50
2022-11-26T13:54:19.520Z,99114.84
2022-11-26T13:56:47.996Z,99113.94
2022-11-26T13:59:28.428Z,99107.53
2022-11-26T14:01:55.571Z,99096.50
2022-11-26T14:04:22.101Z,99095.53
2022-11-26T14:07:05.952Z,99095.94
2022-11-26T14:09:44.715Z,99099.19
2022-11-26T14:12:12.002Z,99090.31
2022-11-26T14:14:40.720Z,99078.44
2022-11-26T14:17:07.445Z,99084.44
2022-11-26T14:19:40.308Z,99088.09
2022-11-26T14:22:15.953Z,99081.59
2022-11-26T14:24:48.814Z,99082.47
2022-11-26T14:27:18.536Z,99075.53
2022-11-26T14:29:47.239Z,99067.34
2022-11-26T14:32:17.068Z,99081.16
2022-11-26T14:34:51.045Z,99074.28
2022-11-26T14:37:24.131Z,99074.28
2022-11-26T14:40:19.663Z,99081.34
2022-11-26T14:42:46.155Z,99078.91
2022-11-26T14:45:19.475Z,99086.88
2022-11-26T14:47:50.136Z,99085.75
2022-11-26T14:50:20.162Z,99091.38
2022-11-26T14:52:51.463Z,99083.41
2022-11-26T14:55:21.074Z,99095.47
2022-11-26T14:58:07.589Z,99093.31
2022-11-26T15:00:41.381Z,99091.25
2022-11-26T15:03:24.947Z,99093.44
2022-11-26T15:05:51.639Z,99087.28
2022-11-26T15:08:20.406Z,99095.09
2022-11-26T15:10:51.584Z,99091.44
2022-11-26T15:13:41.706Z,99094.16
2022-11-26T15:16:30.178Z,99091.25
2022-11-26T15:18:58.450Z,99090.88
2022-11-26T15:21:27.222Z,99093.19
2022-11-26T15:23:56.785Z,99089.88
2022-11-26T15:26:26.507Z,99100.78
2022-11-26T15:28:53.104Z,99095.19
2022-11-26T15:31:19.878Z,99098.69
2022-11-26T15:33:47.202Z,99090.47
2022-11-26T15:36:17.639Z,99103.53
2022-11-26T15:39:07.231Z,99101.31
2022-11-26T15:41:42.444Z,99101.03
2022-11-26T15:44:25.279Z,99110.09
2022-11-26T15:46:54.217Z,99099.22
2022-11-26T15:49:28.807Z,99090.56
2022-11-26T15:52:00.682Z,99110.34
2022-11-26T15:54:49.599Z,99110.31
2022-11-26T15:57:32.912Z,99109.47
2022-11-26T16:00:20.339Z,99115.44
2022-11-26T16:02:46.947Z,99115.38
2022-11-26T16:05:28.959Z,99119.53
2022-11-26T16:08:06.540Z,99120.00
2022-11-26T16:10:36.669Z,99119.13
2022-11-26T16:13:15.544Z,99114.38
2022-11-26T16:15:51.712Z,99117.25
2022-11-26T16:18:25.472Z,99108.50
2022-11-26T16:21:08.593Z,99104.72
2022-11-26T16:23:38.386Z,99108.13
2022-11-26T16:26:12.966Z,99105.13
2022-11-26T16:28:39.537Z,99107.44
2022-11-26T16:31:07.168Z,99098.59
2022-11-26T16:33:36.159Z,99094.06
2022-11-26T16:36:12.917Z,99099.13
2022-11-26T16:38:39.417Z,99098.31
2022-11-26T16:41:17.264Z,99102.88
2022-11-26T16:43:43.828Z,99098.22
2022-11-26T16:46:16.766Z,99104.09
2022-11-26T16:48:44.835Z,99099.06
2022-11-26T16:51:11.716Z,99093.94
2022-11-26T16:53:38.354Z,99098.63
2022-11-26T16:58:50.736Z,99085.66
2022-11-26T17:01:17.645Z,99081.78
2022-11-26T17:03:44.573Z,99082.56
2022-11-26T17:06:16.323Z,99071.69
2022-11-26T17:08:49.126Z,99065.81
2022-11-26T17:11:16.155Z,99059.81
2022-11-26T17:13:42.980Z,99051.91
2022-11-26T17:16:29.166Z,99054.53
2022-11-26T17:18:58.327Z,99060.91
2022-11-26T17:21:24.858Z,99065.59
2022-11-26T17:23:51.452Z,99070.66
2022-11-26T17:26:22.802Z,99062.16
2022-11-26T17:28:50.420Z,99057.72
2022-11-26T17:31:17.766Z,99060.56
2022-11-26T17:33:44.379Z,99047.38
2022-11-26T17:36:19.661Z,99057.44
2022-11-26T17:38:47.087Z,99064.31
2022-11-26T17:41:14.621Z,99077.94
2022-11-26T17:43:41.517Z,99069.44
2022-11-26T17:46:20.312Z,99072.34
2022-11-26T17:48:48.287Z,99051.41
2022-11-26T17:51:14.938Z,99052.69
2022-11-26T17:53:42.739Z,99047.69
2022-11-26T17:56:17.151Z,99057.75
2022-11-26T17:58:43.697Z,99050.94
2022-11-26T18:01:10.293Z,99059.91
2022-11-26T18:03:36.947Z,99058.34
2022-11-26T18:06:04.345Z,99055.69
2022-11-26T18:08:31.010Z,99070.75
2022-11-26T18:10:57.498Z,99075.09
2022-11-26T18:13:24.539Z,99077.59
2022-11-26T18:15:59.591Z,99077.25
2022-11-26T18:18:30.289Z,99077.38
2022-11-26T18:20:59.548Z,99078.59
2022-11-26T18:23:26.080Z,99072.13
2022-11-26T18:25:52.926Z,99064.91
2022-11-26T18:28:19.532Z,99061.06
2022-11-26T18:30:46.246Z,99054.34
2022-11-26T18:33:14.731Z,99061.19
2022-11-26T18:35:42.788Z,99068.63
2022-11-26T18:38:10.883Z,99056.16
2022-11-26T18:40:40.027Z,99040.75
2022-11-26T18:43:10.398Z,99037.03
2022-11-26T18:45:41.960Z,99035.81
2022-11-26T18:48:08.560Z,99033.69
2022-11-26T18:50:35.999Z,99036.66
2022-11-26T18:53:03.197Z,99021.81
2022-11-26T18:55:30.477Z,99023.38
2022-11-26T18:58:04.053Z,99028.53
2022-11-26T19:00:33.275Z,99023.72
2022-11-26T19:02:59.863Z,99025.91
2022-11-26T19:05:26.415Z,99026.97
2022-11-26T19:07:53.021Z,99031.47
2022-11-26T19:10:19.618Z,99022.63
2022-11-26T19:12:48.187Z,99027.03
2022-11-26T19:15:14.736Z,99030.50
2022-11-26T19:17:41.215Z,99037.00
2022-11-26T19:20:13.998Z,99037.56
2022-11-26T19:22:40.845Z,99026.06
2022-11-26T19:25:08.907Z,99037.41
2022-11-26T19:27:35.510Z,99033.06
2022-11-26T19:30:02.026Z,99029.09
2022-11-26T19:32:28.697Z,99033.75
2022-11-26T19:34:55.209Z,99040.47
2022-11-26T19:37:21.743Z,99033.59
2022-11-26T19:40:01.082Z,99043.38
2022-11-26T19:42:30.010Z,99030.13
2022-11-26T19:44:56.678Z,99041.84
2022-11-26T19:48:13.011Z,99024.59
2022-11-26T19:55:14.102Z,99041.03
2022-11-26T19:57:40.691Z,99040.19
2022-11-26T20:00:09.252Z,99038.88
2022-11-26T20:02:36.084Z,99037.66
2022-11-26T20:05:03.142Z,99038.81
2022-11-26T20:07:29.719Z,99034.41
2022-11-26T20:09:56.272Z,99037.91
2022-11-26T20:12:22.801Z,99038.03
2022-11-26T20:14:49.380Z,99038.91
2022-11-26T20:17:15.945Z,99037.94
2022-11-26T20:19:42.625Z,99029.31
2022-11-26T20:22:12.264Z,99016.41
2022-11-26T20:24:41.600Z,99004.31
2022-11-26T20:27:08.097Z,99019.84
2022-11-26T20:29:37.350Z,99029.94
2022-11-26T20:32:04.054Z,99028.81
2022-11-26T20:34:33.554Z,99057.59
2022-11-26T20:37:00.213Z,99072.16
2022-11-26T20:39:28.655Z,99091.94
2022-11-26T20:41:55.545Z,99073.69
2022-11-26T20:44:24.141Z,99058.00
2022-11-26T20:46:50.721Z,99028.56
2022-11-26T20:49:17.223Z,99038.03
2022-11-26T20:51:43.783Z,99024.56
2022-11-26T20:54:13.317Z,99022.38
2022-11-26T20:56:41.474Z,99012.81
2022-11-26T20:59:09.714Z,99011.88
2022-11-26T21:01:36.882Z,99013.53
2022-11-26T21:04:03.505Z,99012.09
2022-11-26T21:06:30.854Z,99016.00
2022-11-26T21:09:01.260Z,99009.41
2022-11-26T21:11:28.867Z,99005.72
2022-11-26T21:13:56.969Z,98979.97
2022-11-26T21:16:23.661Z,98994.34
2022-11-26T21:18:53.051Z,98990.31
2022-11-26T21:21:19.568Z,98998.50
2022-11-26T21:23:46.734Z,99004.31
2022-11-26T21:26:19.073Z,99001.69
2022-11-26T21:28:59.172Z,99006.69
2022-11-26T21:31:28.089Z,98999.50
2022-11-26T21:34:03.887Z,99002.16
2022-11-26T21:36:32.073Z,99004.78
2022-11-26T21:38:59.052Z,99004.88
2022-11-26T21:41:29.133Z,98976.28
2022-11-26T21:43:55.663Z,98978.25
2022-11-26T21:46:25.214Z,98967.91
2022-11-26T21:48:55.980Z,98971.47
2022-11-26T21:51:24.892Z,98961.75
2022-11-26T21:53:53.675Z,98947.59
2022-11-26T21:56:22.771Z,98953.63
2022-11-26T21:58:50.047Z,98962.44
2022-11-26T22:01:23.048Z,98946.91
2022-11-26T22:03:52.702Z,98949.31
2022-11-26T22:06:21.683Z,98925.81
2022-11-26T22:08:49.084Z,98917.59
2022-11-26T22:11:21.435Z,98921.00
2022-11-26T22:13:47.988Z,98922.34
2022-11-26T22:16:16.807Z,98937.50
2022-11-26T22:18:47.212Z,98933.28
2022-11-26T22:21:20.526Z,98938.16
2022-11-26T22:23:47.482Z,98957.34
2022-11-26T22:26:14.661Z,98974.88
2022-11-26T22:28:44.047Z,98973.00
2022-11-26T22:31:14.655Z,98974.78
2022-11-26T22:33:45.270Z,98965.13
2022-11-26T22:36:14.049Z,98952.09
2022-11-26T22:38:41.545Z,98931.28
2022-11-26T22:41:10.344Z,98907.59
2022-11-26T22:43:37.364Z,98897.25
2022-11-26T22:46:09.575Z,98897.09
2022-11-26T22:48:36.470Z,98898.84
2022-11-26T22:51:03.219Z,98892.81
2022-11-26T22:53:29.998Z,98878.97
2022-11-26T22:55:58.910Z,98880.47
2022-11-26T22:58:27.152Z,98889.59
2022-11-26T23:00:56.536Z,98916.03
2022-11-26T23:03:25.647Z,98922.66
2022-11-26T23:05:53.119Z,98929.69
2022-11-26T23:08:20.727Z,98940.94
2022-11-26T23:10:50.842Z,98926.06
2022-11-26T23:13:19.651Z,98918.31
2022-11-26T23:15:49.306Z,98948.69
2022-11-26T23:18:17.150Z,98952.75
2022-11-26T23:20:44.091Z,98923.25
2022-11-26T23:23:10.711Z,98899.41
2022-11-26T23:25:39.090Z,98889.13
2022-11-26T23:28:06.630Z,98905.50
2022-11-26T23:30:33.593Z,98905.28
2022-11-26T23:33:00.100Z,98902.34
2022-11-26T23:35:26.861Z,98887.34
2022-11-26T23:37:53.331Z,98878.63
2022-11-26T23:40:19.827Z,98883.34
2022-11-26T23:42:48.428Z,98859.88
2022-11-26T23:45:14.949Z,98856.56
2022-11-26T23:47:41.469Z,98861.50
2022-11-26T23:50:08.301Z,98870.00
2022-11-26T23:52:35.652Z,98874.78
2022-11-26T23:55:02.198Z,98849.28
2022-11-26T23:57:28.746Z,98874.16
2022-11-26T23:59:55.243Z,98879.25
